CLH weather

Coolah Airport
New South Wales, Australia

Public forecast

Using degrees Celsius for public forecast. Weather courtesy of forecast.io.

METAR (pilot weather report)

Closest report is Coonabarabran Airport, 31.8 nm (58.8 km) NNW. Retrieved 2019/09/24 07:00 UTC (43 minutes ago):

YCBB 240700Z AUTO 23009KT 9999 // NCD 18/M05 Q1024

TAF (pilot weather forecast)

Closest forecast is Dubbo City Regional Airport, 59.0 nm (109.3 km) WSW. Retrieved 2019/09/24 06:36 UTC (1 hour ago):

TAF YSDU 240503Z 2406/2424 21010KT CAVOK FM241000 16008KT CAVOK